KALI/ALI METAR and TAF weather

Enter ICAO airport designator
Station Type Date Time Source
KALI METAR 2021/03/04 21:53 UTC NOAA

KALI 042153Z AUTO 13013G19KT 10SM CLR 26/12 A2997 RMK AO2 SLP148 T02560122


Station Type Date Time Source
KALI Decoded METAR 2021/03/04 21:53 UTC NOAA

ALICE INTERNATIONAL AIRPORT, TX, United States (KALI) 27-44N 098-01W 53M
Mar 04, 2021 - 04:53 PM EST / 2021.03.04 2153 UTC
Wind: from the SE (130 degrees) at 15 MPH (13 KT) gusting to 22 MPH (19 KT):0
Visibility: 10 mile(s):0
Sky conditions: clear
Temperature: 78.1 F (25.6 C)
Dew Point: 54.0 F (12.2 C)
Relative Humidity: 43%
Pressure (altimeter): 29.97 in. Hg (1014 hPa)
ob: KALI 042153Z AUTO 13013G19KT 10SM CLR 26/12 A2997 RMK AO2 SLP148 T02560122
cycle: 22

Station Type Date Time Source
KALI TAF 2021/03/04 18:27 UTC NOAA

TAF KALI 041724Z 0418/0518 14009G18KT P6SM SCT030 SCT250
FM050500 14005KT P6SM OVC020
FM051000 VRB04KT 4SM BR OVC015
TEMPO 0512/0514 2SM BR OVC007
FM051500 30006KT 6SM BR OVC025

Example: see airport list